createdAt,value
2023-01-02T00:00:27.657Z,4.80
2023-01-02T00:02:54.892Z,4.00
2023-01-02T00:05:22.013Z,5.10
2023-01-02T00:07:48.993Z,3.87
2023-01-02T00:10:16.076Z,4.40
2023-01-02T00:12:43.274Z,5.10
2023-01-02T00:15:10.523Z,4.33
2023-01-02T00:17:37.527Z,6.63
2023-01-02T00:20:04.750Z,4.87
2023-01-02T00:22:31.761Z,3.03
2023-01-02T00:24:58.960Z,4.63
2023-01-02T00:27:26.057Z,3.90
2023-01-02T00:29:53.071Z,3.97
2023-01-02T00:32:20.130Z,5.07
2023-01-02T00:34:47.110Z,3.00
2023-01-02T00:37:14.091Z,3.87
2023-01-02T00:39:41.062Z,3.20
2023-01-02T00:42:08.127Z,3.83
2023-01-02T00:44:35.136Z,3.27
2023-01-02T00:47:02.210Z,3.80
2023-01-02T00:49:29.358Z,3.70
2023-01-02T00:51:56.439Z,3.40
2023-01-02T00:54:23.451Z,5.07
2023-01-02T00:56:50.476Z,2.97
2023-01-02T00:59:17.467Z,5.53
2023-01-02T01:01:44.726Z,4.83
2023-01-02T01:04:11.937Z,4.77
2023-01-02T01:06:38.959Z,4.13
2023-01-02T01:09:05.968Z,4.03
2023-01-02T01:11:32.992Z,3.30
2023-01-02T01:14:00.096Z,4.87
2023-01-02T01:16:27.581Z,4.40
2023-01-02T01:18:58.075Z,4.40
2023-01-02T01:21:25.211Z,2.83
2023-01-02T01:23:52.997Z,3.40
2023-01-02T01:26:20.509Z,3.70
2023-01-02T01:28:47.700Z,3.33
2023-01-02T01:31:15.802Z,3.97
2023-01-02T01:33:43.414Z,3.23
2023-01-02T01:36:12.167Z,2.57
2023-01-02T01:38:39.203Z,3.70
2023-01-02T01:41:06.642Z,4.73
2023-01-02T01:43:39.749Z,2.97
2023-01-02T01:46:20.241Z,3.60
2023-01-02T01:48:49.099Z,6.10
2023-01-02T01:51:16.841Z,3.93
2023-01-02T01:53:45.267Z,3.70
2023-01-02T01:56:12.979Z,2.33
2023-01-02T01:58:43.108Z,5.80
2023-01-02T02:01:12.975Z,4.00
2023-01-02T02:03:41.315Z,4.17
2023-01-02T02:06:08.676Z,3.73
2023-01-02T02:08:45.088Z,4.57
2023-01-02T02:11:13.684Z,3.03
2023-01-02T02:13:41.050Z,2.83
2023-01-02T02:16:17.390Z,4.33
2023-01-02T02:18:44.493Z,4.10
2023-01-02T02:21:26.881Z,4.70
2023-01-02T02:24:03.261Z,5.07
2023-01-02T02:26:49.643Z,3.80
2023-01-02T02:29:35.017Z,5.27
2023-01-02T02:32:27.145Z,5.83
2023-01-02T02:35:05.391Z,4.67
2023-01-02T02:37:50.910Z,2.83
2023-01-02T02:40:23.356Z,3.50
2023-01-02T02:43:00.108Z,3.50
2023-01-02T02:45:27.096Z,4.80
2023-01-02T02:48:01.989Z,3.83
2023-01-02T02:50:41.343Z,3.13
2023-01-02T02:53:17.951Z,5.27
2023-01-02T02:55:46.627Z,3.73
2023-01-02T02:58:14.642Z,3.37
2023-01-02T03:00:41.739Z,3.20
2023-01-02T03:03:16.023Z,3.13
2023-01-02T03:05:44.681Z,2.77
2023-01-02T03:08:17.396Z,4.23
2023-01-02T03:10:49.683Z,3.80
2023-01-02T03:13:28.088Z,2.70
2023-01-02T03:15:58.074Z,5.13
2023-01-02T03:18:30.682Z,3.67
2023-01-02T03:21:15.109Z,3.37
2023-01-02T03:23:46.692Z,4.00
2023-01-02T03:26:15.622Z,2.73
2023-01-02T03:28:44.515Z,4.27
2023-01-02T03:31:14.132Z,2.90
2023-01-02T03:33:43.126Z,3.90
2023-01-02T03:36:11.871Z,3.67
2023-01-02T03:38:47.949Z,5.23
2023-01-02T03:41:18.849Z,3.07
2023-01-02T03:43:48.996Z,4.50
2023-01-02T03:46:25.103Z,6.63
2023-01-02T03:48:54.163Z,4.23
2023-01-02T03:51:21.210Z,3.80
2023-01-02T03:53:50.073Z,3.63
2023-01-02T03:56:23.558Z,3.87
2023-01-02T03:58:53.765Z,2.90
2023-01-02T04:01:23.761Z,3.40
2023-01-02T04:03:53.167Z,5.33
2023-01-02T04:06:23.458Z,4.13
2023-01-02T04:08:52.913Z,3.10
2023-01-02T04:11:21.228Z,3.67
2023-01-02T04:14:00.836Z,3.03
2023-01-02T04:16:31.525Z,2.73
2023-01-02T04:19:03.748Z,2.93
2023-01-02T04:21:32.125Z,2.77
2023-01-02T04:24:05.189Z,6.90
2023-01-02T04:26:34.438Z,5.30
2023-01-02T04:29:01.504Z,3.80
2023-01-02T04:31:34.360Z,5.23
2023-01-02T04:34:03.004Z,2.00
2023-01-02T04:36:30.121Z,4.63
2023-01-02T04:38:57.166Z,5.20
2023-01-02T04:41:26.905Z,3.23
2023-01-02T04:43:54.723Z,3.10
2023-01-02T04:46:22.163Z,5.83
2023-01-02T04:48:49.275Z,6.13
2023-01-02T04:51:16.312Z,4.27
2023-01-02T04:53:43.382Z,2.97
2023-01-02T04:56:10.380Z,4.23
2023-01-02T04:58:37.390Z,6.43
2023-01-02T05:01:08.531Z,3.80
2023-01-02T05:03:35.558Z,5.63
2023-01-02T05:06:02.619Z,3.07
2023-01-02T05:08:29.963Z,6.57
2023-01-02T05:10:56.964Z,3.90
2023-01-02T05:13:23.978Z,7.03
2023-01-02T05:15:57.440Z,5.37
2023-01-02T05:18:24.589Z,6.13
2023-01-02T05:20:51.589Z,4.00
2023-01-02T05:23:41.751Z,2.33
2023-01-02T05:26:12.227Z,5.77
2023-01-02T05:28:39.263Z,4.03
2023-01-02T05:31:06.342Z,3.70
2023-01-02T05:33:33.353Z,4.13
2023-01-02T05:36:00.437Z,5.20
2023-01-02T05:38:27.427Z,3.10
2023-01-02T05:41:01.615Z,6.83
2023-01-02T05:43:30.185Z,2.73
2023-01-02T05:45:57.170Z,5.00
2023-01-02T05:48:24.231Z,3.00
2023-01-02T05:50:51.262Z,2.33
2023-01-02T05:53:18.410Z,5.22
2023-01-02T05:55:45.471Z,4.83
2023-01-02T05:58:12.447Z,5.10
2023-01-02T06:00:39.444Z,6.93
2023-01-02T06:03:06.488Z,6.50
2023-01-02T06:05:34.807Z,5.03
2023-01-02T06:08:02.123Z,4.47
2023-01-02T06:10:29.196Z,4.50
2023-01-02T06:12:56.224Z,4.97
2023-01-02T06:15:23.240Z,3.63
2023-01-02T06:17:50.253Z,3.73
2023-01-02T06:20:17.376Z,5.23
2023-01-02T06:22:44.421Z,4.67
2023-01-02T06:25:11.433Z,8.33
2023-01-02T06:27:38.463Z,4.80
2023-01-02T06:30:05.678Z,5.97
2023-01-02T06:32:32.679Z,3.97
2023-01-02T06:34:59.664Z,4.87
2023-01-02T06:37:26.644Z,4.03
2023-01-02T06:39:53.656Z,4.00
2023-01-02T06:42:20.684Z,5.57
2023-01-02T06:44:47.670Z,5.80
2023-01-02T06:47:14.644Z,4.80
2023-01-02T06:49:41.680Z,4.27
2023-01-02T06:52:08.661Z,2.70
2023-01-02T06:54:35.661Z,5.13
2023-01-02T06:57:02.682Z,3.60
2023-01-02T06:59:29.713Z,4.70
2023-01-02T07:01:56.851Z,3.57
2023-01-02T07:04:23.980Z,4.00
2023-01-02T07:06:51.107Z,4.47
2023-01-02T07:09:18.122Z,6.13
2023-01-02T07:11:45.123Z,7.33
2023-01-02T07:14:12.094Z,4.40
2023-01-02T07:16:39.205Z,3.23
2023-01-02T07:19:06.303Z,4.43
2023-01-02T07:21:33.275Z,4.33
2023-01-02T07:24:00.265Z,4.03
2023-01-02T07:26:27.311Z,4.80
2023-01-02T07:28:54.291Z,5.93
2023-01-02T07:31:22.558Z,2.90
2023-01-02T07:33:49.783Z,4.77
2023-01-02T07:36:17.888Z,4.27
2023-01-02T07:38:45.248Z,6.30
2023-01-02T07:41:14.127Z,4.63
2023-01-02T07:43:41.138Z,7.97
2023-01-02T07:46:08.160Z,5.07
2023-01-02T07:48:35.206Z,3.20
2023-01-02T07:51:05.938Z,3.50
2023-01-02T07:53:33.026Z,4.70
2023-01-02T07:56:00.798Z,4.07
2023-01-02T07:58:28.103Z,5.70
2023-01-02T08:00:59.806Z,6.33
2023-01-02T08:03:31.527Z,6.10
2023-01-02T08:06:08.424Z,8.73
2023-01-02T08:08:35.747Z,6.03
2023-01-02T08:11:10.490Z,5.13
2023-01-02T08:13:37.618Z,3.80
2023-01-02T08:16:05.732Z,4.47
2023-01-02T08:18:32.812Z,4.27
2023-01-02T08:20:59.836Z,3.67
2023-01-02T08:23:26.831Z,5.73
2023-01-02T08:25:57.448Z,4.10
2023-01-02T08:28:24.804Z,5.47
2023-01-02T08:30:51.820Z,6.20
2023-01-02T08:33:18.872Z,5.80
2023-01-02T08:35:45.904Z,6.27
2023-01-02T08:38:12.901Z,6.27
2023-01-02T08:40:40.160Z,3.97
2023-01-02T08:43:07.959Z,4.33
2023-01-02T08:45:35.005Z,5.33
2023-01-02T08:48:19.521Z,5.33
2023-01-02T08:50:46.969Z,5.03
2023-01-02T08:53:13.995Z,4.17
2023-01-02T08:55:40.987Z,9.83
2023-01-02T08:58:08.012Z,4.73
2023-01-02T09:00:35.016Z,7.00
2023-01-02T09:03:02.382Z,4.53
2023-01-02T09:05:30.865Z,6.53
2023-01-02T09:07:58.423Z,4.97
2023-01-02T09:10:25.636Z,4.23
2023-01-02T09:12:52.827Z,3.93
2023-01-02T09:15:19.843Z,3.90
2023-01-02T09:17:46.857Z,5.00
2023-01-02T09:20:13.900Z,5.93
2023-01-02T09:22:40.936Z,5.00
2023-01-02T09:25:08.629Z,5.83
2023-01-02T09:27:35.635Z,4.73
2023-01-02T09:30:02.621Z,4.03
2023-01-02T09:32:29.654Z,3.67
2023-01-02T09:34:56.656Z,8.23
2023-01-02T09:37:23.660Z,4.17
2023-01-02T09:39:50.646Z,4.60
2023-01-02T09:42:17.773Z,3.63
2023-01-02T09:44:56.030Z,5.20
2023-01-02T09:47:30.903Z,5.57
2023-01-02T09:50:11.326Z,4.03
2023-01-02T09:52:43.178Z,7.70
2023-01-02T09:55:26.390Z,4.63
2023-01-02T09:57:57.265Z,6.03
2023-01-02T10:00:26.219Z,3.97
2023-01-02T10:03:04.163Z,5.83
2023-01-02T10:05:34.521Z,4.57
2023-01-02T10:08:02.623Z,8.80
2023-01-02T10:10:40.387Z,4.70
2023-01-02T10:13:10.379Z,5.17
2023-01-02T10:15:38.733Z,4.33
2023-01-02T10:18:14.762Z,7.00
2023-01-02T10:20:43.689Z,4.07
2023-01-02T10:23:15.551Z,4.97
2023-01-02T10:25:53.756Z,6.10
2023-01-02T10:28:32.959Z,4.97
2023-01-02T10:31:06.956Z,6.57
2023-01-02T10:33:45.880Z,3.53
2023-01-02T10:36:26.968Z,6.07
2023-01-02T10:39:04.813Z,4.17
2023-01-02T10:41:32.716Z,5.63
2023-01-02T10:44:01.100Z,9.40
2023-01-02T10:46:29.696Z,12.33
2023-01-02T10:48:57.845Z,10.60
2023-01-02T10:51:24.834Z,7.63
2023-01-02T10:54:02.161Z,6.90
2023-01-02T10:56:31.929Z,5.27
2023-01-02T10:58:59.720Z,8.77
2023-01-02T11:01:27.265Z,7.57
2023-01-02T11:04:00.076Z,9.03
2023-01-02T11:06:35.070Z,8.83
2023-01-02T11:09:05.415Z,7.90
2023-01-02T11:11:33.008Z,8.13
2023-01-02T11:14:07.026Z,7.93
2023-01-02T11:16:38.368Z,8.43
2023-01-02T11:19:07.438Z,8.07
2023-01-02T11:21:36.342Z,6.83
2023-01-02T11:24:08.458Z,3.93
2023-01-02T11:26:36.439Z,5.37
2023-01-02T11:29:08.188Z,6.50
2023-01-02T11:31:35.552Z,7.23
2023-01-02T11:34:10.473Z,5.70
2023-01-02T11:36:37.640Z,7.63
2023-01-02T11:39:20.583Z,8.97
2023-01-02T11:42:13.517Z,10.70
2023-01-02T11:44:49.283Z,9.43
2023-01-02T11:47:16.877Z,7.53
2023-01-02T11:49:44.944Z,8.37
2023-01-02T11:52:20.152Z,8.37
2023-01-02T11:54:55.694Z,7.53
2023-01-02T11:57:31.611Z,6.77
2023-01-02T11:59:59.682Z,7.00
2023-01-02T12:02:31.994Z,6.23
2023-01-02T12:04:59.111Z,6.83
2023-01-02T12:07:35.543Z,8.37
2023-01-02T12:10:26.169Z,8.73
2023-01-02T12:13:02.121Z,7.63
2023-01-02T12:15:38.392Z,8.57
2023-01-02T12:18:24.219Z,4.20
2023-01-02T12:21:07.012Z,4.70
2023-01-02T12:23:49.123Z,6.87
2023-01-02T12:26:19.143Z,7.17
2023-01-02T12:29:01.240Z,7.73
2023-01-02T12:31:36.390Z,10.30
2023-01-02T12:34:08.932Z,8.40
2023-01-02T12:36:44.381Z,9.47
2023-01-02T12:39:17.549Z,7.00
2023-01-02T12:42:01.871Z,10.03
2023-01-02T12:44:44.974Z,9.07
2023-01-02T12:47:30.796Z,9.23
2023-01-02T12:50:10.056Z,9.60
2023-01-02T12:52:55.815Z,7.63
2023-01-02T12:55:25.958Z,8.98
2023-01-02T12:57:59.610Z,9.13
2023-01-02T13:00:45.448Z,8.87
2023-01-02T13:03:32.479Z,12.57
2023-01-02T13:06:03.175Z,12.73
2023-01-02T13:08:32.987Z,6.33
2023-01-02T13:11:01.355Z,9.37
2023-01-02T13:13:32.612Z,6.30
2023-01-02T13:16:03.781Z,12.80
2023-01-02T13:19:01.744Z,8.87
2023-01-02T13:21:55.172Z,10.40
2023-01-02T13:24:23.582Z,11.93
2023-01-02T13:26:51.392Z,8.40
2023-01-02T13:29:18.431Z,8.93
2023-01-02T13:31:49.721Z,9.73
2023-01-02T13:34:30.374Z,9.93
2023-01-02T13:37:08.689Z,9.80
2023-01-02T13:39:45.908Z,8.17
2023-01-02T13:42:43.836Z,6.50
2023-01-02T13:45:23.994Z,8.53
2023-01-02T13:47:55.892Z,11.03
2023-01-02T13:50:27.916Z,10.27
2023-01-02T13:53:10.221Z,10.17
2023-01-02T13:55:57.582Z,10.10
2023-01-02T13:58:25.826Z,6.13
2023-01-02T14:00:55.542Z,8.93
2023-01-02T14:03:23.301Z,8.00
2023-01-02T14:05:59.453Z,10.00
2023-01-02T14:08:27.618Z,8.93
2023-01-02T14:10:57.843Z,8.57
2023-01-02T14:13:29.807Z,6.17
2023-01-02T14:16:06.625Z,7.97
2023-01-02T14:18:33.717Z,6.90
2023-01-02T14:21:00.819Z,5.53
2023-01-02T14:23:41.057Z,5.73
2023-01-02T14:26:21.625Z,9.93
2023-01-02T14:28:51.518Z,11.07
2023-01-02T14:31:19.898Z,8.93
2023-01-02T14:33:53.080Z,9.10
2023-01-02T14:36:26.021Z,9.70
2023-01-02T14:38:55.277Z,10.23
2023-01-02T14:42:00.032Z,9.07
2023-01-02T14:44:27.136Z,8.97
2023-01-02T14:46:54.539Z,5.93
2023-01-02T14:49:24.876Z,7.80
2023-01-02T14:52:01.842Z,7.53
2023-01-02T14:54:42.241Z,8.20
2023-01-02T14:57:30.563Z,9.27
2023-01-02T14:59:59.322Z,5.20
2023-01-02T15:02:31.353Z,6.97
2023-01-02T15:05:06.302Z,8.57
2023-01-02T15:07:52.919Z,10.00
2023-01-02T15:10:21.014Z,10.60
2023-01-02T15:13:04.461Z,8.10
2023-01-02T15:15:40.853Z,10.23
2023-01-02T15:18:12.026Z,6.47
2023-01-02T15:20:40.064Z,8.75
2023-01-02T15:23:07.164Z,6.47
2023-01-02T15:25:36.632Z,8.53
2023-01-02T15:28:03.800Z,8.80
2023-01-02T15:30:34.511Z,6.33
2023-01-02T15:33:01.614Z,8.70
2023-01-02T15:35:30.098Z,7.90
2023-01-02T15:37:57.723Z,5.60
2023-01-02T15:40:24.756Z,7.70
2023-01-02T15:43:12.651Z,10.07
2023-01-02T15:45:51.355Z,6.57
2023-01-02T15:48:19.878Z,7.33
2023-01-02T15:50:48.166Z,8.17
2023-01-02T15:53:24.506Z,7.93
2023-01-02T15:55:51.548Z,5.40
2023-01-02T15:58:18.588Z,7.07
2023-01-02T16:00:46.821Z,8.87
2023-01-02T16:04:02.928Z,7.53
2023-01-02T16:06:33.516Z,8.57
2023-01-02T16:09:01.390Z,5.73
2023-01-02T16:11:28.788Z,6.53
2023-01-02T16:14:20.633Z,7.70
2023-01-02T16:16:50.073Z,8.20
2023-01-02T16:19:40.578Z,7.07
2023-01-02T16:22:10.639Z,10.80
2023-01-02T16:24:42.004Z,9.73
2023-01-02T16:27:12.660Z,9.17
2023-01-02T16:29:41.918Z,9.53
2023-01-02T16:32:22.837Z,8.37
2023-01-02T16:34:59.327Z,6.50
2023-01-02T16:37:29.824Z,8.20
2023-01-02T16:39:57.036Z,7.97
2023-01-02T16:42:35.091Z,6.77
2023-01-02T16:45:02.097Z,8.47
2023-01-02T16:47:40.376Z,9.23
2023-01-02T16:50:09.285Z,8.13
2023-01-02T16:52:36.995Z,4.53
2023-01-02T16:55:04.374Z,6.17
2023-01-02T16:57:31.431Z,9.50
2023-01-02T16:59:58.449Z,7.13
2023-01-02T17:02:25.530Z,7.03
2023-01-02T17:04:52.626Z,6.57
2023-01-02T17:07:22.398Z,7.67
2023-01-02T17:09:49.770Z,6.73
2023-01-02T17:12:16.842Z,8.73
2023-01-02T17:14:43.834Z,7.90
2023-01-02T17:17:10.833Z,8.07
2023-01-02T17:19:37.824Z,5.47
2023-01-02T17:22:04.802Z,8.77
2023-01-02T17:24:31.872Z,6.50
2023-01-02T17:26:58.853Z,5.77
2023-01-02T17:29:25.851Z,9.20
2023-01-02T17:31:52.996Z,6.43
2023-01-02T17:34:20.096Z,8.13
2023-01-02T17:36:47.174Z,7.23
2023-01-02T17:39:14.793Z,6.00
2023-01-02T17:41:41.892Z,5.17
2023-01-02T17:44:08.946Z,8.70
2023-01-02T17:47:09.235Z,6.50
2023-01-02T17:49:23.490Z,6.03
2023-01-02T17:51:50.552Z,5.30
2023-01-02T17:54:17.778Z,5.73
2023-01-02T17:56:44.833Z,9.37
2023-01-02T17:59:12.833Z,5.47
2023-01-02T18:01:40.134Z,8.40
2023-01-02T18:04:07.249Z,6.53
2023-01-02T18:06:34.517Z,2.73
2023-01-02T18:09:01.511Z,4.07
2023-01-02T18:11:28.618Z,3.10
2023-01-02T18:13:56.187Z,3.23
2023-01-02T18:16:32.158Z,3.90
2023-01-02T18:19:04.925Z,3.03
2023-01-02T18:21:33.307Z,4.93
2023-01-02T18:24:02.269Z,3.63
2023-01-02T18:26:30.965Z,4.87
2023-01-02T18:29:02.832Z,2.33
2023-01-02T18:31:39.501Z,4.70
2023-01-02T18:34:45.913Z,3.75
2023-01-02T18:37:04.170Z,1.70
2023-01-02T18:39:38.993Z,1.87
2023-01-02T18:42:13.254Z,3.03
2023-01-02T18:44:40.940Z,1.97
2023-01-02T18:47:26.995Z,1.90
2023-01-02T18:49:54.705Z,0.70
2023-01-02T18:52:25.150Z,1.20
2023-01-02T18:54:58.523Z,1.40
2023-01-02T18:57:33.145Z,1.60
2023-01-02T19:00:15.809Z,1.23
2023-01-02T19:02:57.377Z,1.57
2023-01-02T19:05:28.788Z,1.87
2023-01-02T19:08:01.397Z,1.00
2023-01-02T19:10:41.274Z,1.00
2023-01-02T19:13:17.464Z,1.00
2023-01-02T19:15:46.308Z,0.85
2023-01-02T19:18:18.707Z,0.80
2023-01-02T19:20:47.223Z,0.63
2023-01-02T19:23:25.770Z,0.70
2023-01-02T19:25:53.179Z,1.00
2023-01-02T19:28:24.963Z,1.63
2023-01-02T19:30:52.175Z,1.97
2023-01-02T19:33:39.718Z,0.80
2023-01-02T19:36:16.431Z,0.73
2023-01-02T19:38:44.248Z,1.03
2023-01-02T19:41:11.346Z,0.90
2023-01-02T19:43:38.407Z,1.30
2023-01-02T19:46:05.517Z,3.13
2023-01-02T19:48:32.664Z,2.83
2023-01-02T19:50:59.682Z,2.20
2023-01-02T19:53:26.724Z,3.33
2023-01-02T19:55:53.806Z,1.67
2023-01-02T19:58:20.866Z,2.10
2023-01-02T20:00:47.918Z,1.30
2023-01-02T20:03:15.062Z,1.10
2023-01-02T20:05:42.409Z,0.97
2023-01-02T20:08:09.417Z,0.80
2023-01-02T20:10:36.415Z,1.03
2023-01-02T20:13:03.450Z,1.27
2023-01-02T20:15:30.542Z,1.43
2023-01-02T20:17:57.615Z,0.70
2023-01-02T20:20:25.937Z,1.17
2023-01-02T20:22:54.597Z,2.50
2023-01-02T20:25:25.254Z,1.00
2023-01-02T20:27:53.082Z,1.87
2023-01-02T20:30:24.588Z,1.50
2023-01-02T20:32:51.990Z,0.83
2023-01-02T20:35:19.116Z,1.17
2023-01-02T20:37:46.626Z,1.23
2023-01-02T20:40:14.763Z,1.43
2023-01-02T20:42:41.797Z,1.33
2023-01-02T20:45:09.215Z,1.03
2023-01-02T20:47:37.067Z,1.03
2023-01-02T20:50:04.374Z,1.30
2023-01-02T20:52:31.415Z,1.40
2023-01-02T20:54:58.599Z,1.40
2023-01-02T20:57:25.617Z,1.97
2023-01-02T20:59:52.709Z,2.60
2023-01-02T21:02:19.869Z,1.53
2023-01-02T21:04:47.119Z,1.60
2023-01-02T21:07:14.159Z,2.73
2023-01-02T21:09:41.211Z,1.60
2023-01-02T21:12:28.227Z,1.70
2023-01-02T21:14:55.323Z,1.70
2023-01-02T21:17:22.313Z,1.95
2023-01-02T21:19:49.528Z,1.93
2023-01-02T21:22:16.523Z,2.20
2023-01-02T21:24:43.536Z,2.03
2023-01-02T21:27:13.163Z,1.93
2023-01-02T21:29:40.594Z,2.10
2023-01-02T21:32:07.626Z,2.50
2023-01-02T21:34:34.682Z,1.80
2023-01-02T21:37:01.759Z,1.70
2023-01-02T21:39:28.890Z,1.90
2023-01-02T21:42:14.617Z,2.03
2023-01-02T21:44:41.676Z,2.00
2023-01-02T21:47:08.840Z,2.30
2023-01-02T21:49:35.968Z,2.20
2023-01-02T21:52:03.002Z,2.10
2023-01-02T21:54:30.092Z,1.70
2023-01-02T21:56:57.084Z,2.10
2023-01-02T21:59:25.501Z,2.00
2023-01-02T22:01:53.367Z,1.70
2023-01-02T22:04:20.868Z,2.17
2023-01-02T22:07:29.576Z,2.00
2023-01-02T22:09:35.261Z,1.97
2023-01-02T22:12:02.287Z,2.07
2023-01-02T22:14:33.543Z,1.43
2023-01-02T22:17:02.111Z,1.50
2023-01-02T22:19:29.656Z,1.50
2023-01-02T22:21:56.726Z,1.80
2023-01-02T22:24:26.203Z,1.50
2023-01-02T22:26:54.079Z,3.23
2023-01-02T22:29:21.980Z,2.23
2023-01-02T22:31:49.858Z,1.27
2023-01-02T22:34:20.810Z,1.30
2023-01-02T22:36:47.865Z,2.70
2023-01-02T22:39:30.072Z,1.47
2023-01-02T22:42:57.526Z,1.37
2023-01-02T22:45:05.555Z,1.23
2023-01-02T22:47:33.992Z,1.40
2023-01-02T22:50:01.462Z,1.73
2023-01-02T22:52:28.528Z,1.57
2023-01-02T22:54:55.535Z,2.47
2023-01-02T22:57:22.582Z,3.63
2023-01-02T22:59:49.670Z,1.63
2023-01-02T23:02:17.392Z,1.50
2023-01-02T23:04:44.753Z,1.80
2023-01-02T23:07:24.427Z,1.40
2023-01-02T23:09:51.747Z,1.47
2023-01-02T23:12:18.776Z,1.63
2023-01-02T23:14:45.911Z,1.50
2023-01-02T23:17:31.913Z,1.20
2023-01-02T23:19:58.914Z,1.30
2023-01-02T23:22:26.028Z,1.20
2023-01-02T23:24:53.039Z,1.93
2023-01-02T23:27:20.516Z,1.83
2023-01-02T23:29:47.792Z,3.03
2023-01-02T23:32:14.919Z,2.23
2023-01-02T23:34:42.058Z,1.50
2023-01-02T23:37:09.065Z,2.33
2023-01-02T23:39:36.291Z,3.03
2023-01-02T23:42:03.759Z,1.83
2023-01-02T23:44:30.836Z,1.63
2023-01-02T23:46:57.935Z,2.03
2023-01-02T23:49:25.426Z,1.60
2023-01-02T23:51:53.655Z,1.43
2023-01-02T23:54:21.328Z,1.63
2023-01-02T23:56:49.483Z,2.30
2023-01-02T23:59:18.070Z,2.30
